Time;durP1;ratioP1;P1;durP2;ratioP2;P2;SDS_P1;SDS_P2;PMS_P1;PMS_P2;Temp;Humidity;BMP_temperature;BMP_pressure;BME280_temperature;BME280_humidity;BME280_pressure;Samples;Min_cycle;Max_cycle;Signal;HPM_P1;HPM_P2
2023/01/12 00:00:38;;;;;;;74.80;29.67;;;;;;;-9.48;77.16;100494.84;4914804;28;20078;-66
2023/01/12 00:03:09;;;;;;;77.30;32.20;;;;;;;-9.33;77.24;100497.53;4923450;28;20125;-66
2023/01/12 00:05:39;;;;;;;80.65;32.88;;;;;;;-9.08;77.33;100504.19;4920008;28;20427;-66
2023/01/12 00:08:10;;;;;;;78.65;33.28;;;;;;;-8.75;78.09;100503.84;4929230;28;20587;-66
2023/01/12 00:10:42;;;;;;;70.20;31.58;;;;;;;-8.51;77.83;100504.56;4925420;28;20494;-66
2023/01/12 00:13:13;;;;;;;74.05;29.95;;;;;;;-8.29;77.75;100509.25;4923394;28;20144;-66
2023/01/12 00:18:27;;;;;;;78.53;33.47;;;;;;;-7.96;77.85;100519.75;4913012;28;20052;-66
2023/01/12 00:20:58;;;;;;;66.75;29.90;;;;;;;-8.01;77.03;100526.22;4923060;28;20048;-66
2023/01/12 00:23:29;;;;;;;69.65;30.60;;;;;;;-8.06;77.23;100537.72;5037150;28;20058;-66
2023/01/12 00:26:01;;;;;;;75.32;30.67;;;;;;;-8.07;77.76;100541.03;5075006;28;20055;-66
2023/01/12 00:28:32;;;;;;;78.00;31.23;;;;;;;-8.16;77.41;100545.50;5075578;28;20078;-66
2023/01/12 00:31:04;;;;;;;70.93;28.77;;;;;;;-8.40;78.02;100549.97;5075816;28;20040;-66
2023/01/12 00:33:35;;;;;;;78.07;30.70;;;;;;;-8.49;79.17;100546.03;4985318;28;20048;-66
2023/01/12 00:36:06;;;;;;;65.47;28.48;;;;;;;-8.02;81.20;100559.94;4922424;28;20352;-66
2023/01/12 00:38:38;;;;;;;73.90;29.55;;;;;;;-7.76;81.86;100507.38;4925371;28;20929;-66
2023/01/12 00:45:20;;;;;;;65.45;29.90;;;;;;;-7.28;81.98;100503.50;4926536;28;20054;-66
2023/01/12 00:46:50;;;;;;;67.10;29.00;;;;;;;-6.75;81.41;100513.34;4914157;28;20059;-66
2023/01/12 00:49:21;;;;;;;73.68;30.35;;;;;;;-6.56;81.42;100518.66;4919316;28;20217;-66
2023/01/12 00:51:51;;;;;;;67.72;27.80;;;;;;;-6.26;81.82;100502.47;4927997;28;20040;-65
2023/01/12 00:54:22;;;;;;;64.38;28.42;;;;;;;-5.91;81.71;100479.78;4926533;28;20481;-66
2023/01/12 00:56:54;;;;;;;69.00;29.23;;;;;;;-5.67;81.51;100482.72;4924492;28;20403;-65
2023/01/12 00:59:24;;;;;;;75.65;30.35;;;;;;;-5.50;81.14;100473.41;4927086;28;20463;-66
2023/01/12 01:01:55;;;;;;;60.38;27.80;;;;;;;-5.35;81.00;100473.31;4927378;28;20126;-65
2023/01/12 01:04:26;;;;;;;63.95;26.58;;;;;;;-5.10;81.00;100475.41;4926488;28;20052;-65
2023/01/12 01:06:57;;;;;;;64.10;28.23;;;;;;;-4.71;81.13;100495.16;4926985;28;20043;-65
2023/01/12 01:09:27;;;;;;;58.25;27.40;;;;;;;-4.49;80.84;100503.03;4924463;28;20047;-65
2023/01/12 01:11:59;;;;;;;60.80;25.60;;;;;;;-4.40;80.37;100488.16;4926352;28;20039;-64
2023/01/12 01:14:30;;;;;;;59.58;24.67;;;;;;;-4.13;80.21;100495.34;4923592;28;20044;-65
2023/01/12 01:17:00;;;;;;;59.28;24.52;;;;;;;-4.02;79.72;100496.75;4946441;28;20064;-67
2023/01/12 01:19:33;;;;;;;59.30;26.02;;;;;;;-3.87;79.49;100495.66;4923503;28;20063;-66
2023/01/12 01:22:03;;;;;;;60.45;26.17;;;;;;;-3.79;79.40;100494.34;4917313;28;20050;-64
2023/01/12 01:24:34;;;;;;;64.68;28.67;;;;;;;-3.77;78.78;100492.72;4925677;28;20191;-64
2023/01/12 01:27:06;;;;;;;61.10;26.80;;;;;;;-3.78;78.58;100490.97;4925474;28;20060;-62
2023/01/12 01:29:36;;;;;;;67.20;28.08;;;;;;;-3.86;78.27;100477.00;4927132;28;20048;-68
2023/01/12 01:32:07;;;;;;;70.05;29.25;;;;;;;-3.90;78.70;100476.84;4924793;28;20052;-64
2023/01/12 01:34:38;;;;;;;62.88;27.77;;;;;;;-3.85;78.60;100488.94;4924863;28;20040;-68
2023/01/12 01:37:08;;;;;;;64.22;27.58;;;;;;;-3.72;78.70;100491.25;4926124;28;20055;-68
2023/01/12 01:39:39;;;;;;;64.03;28.52;;;;;;;-3.56;78.73;100493.69;4924823;28;20414;-67
2023/01/12 01:42:26;;;;;;;70.00;29.00;;;;;;;-3.42;78.83;100476.41;4925061;28;20059;-65
2023/01/12 01:44:58;;;;;;;70.28;28.73;;;;;;;-3.49;78.27;100465.03;4915481;28;20853;-65
2023/01/12 01:47:39;;;;;;;68.20;28.58;;;;;;;-3.62;78.09;100465.34;4925272;28;20433;-67
2023/01/12 01:50:18;;;;;;;63.10;28.08;;;;;;;-4.13;77.67;100396.69;4914770;28;20524;-65
2023/01/12 01:52:52;;;;;;;69.85;27.60;;;;;;;-3.74;78.33;100459.69;4914347;28;20055;-68
2023/01/12 01:55:25;;;;;;;58.90;29.30;;;;;;;-3.78;78.63;100460.34;4918997;28;20111;-65
2023/01/12 01:58:01;;;;;;;67.63;26.95;;;;;;;-3.85;78.67;100478.75;4926215;28;20494;-66
2023/01/12 02:00:32;;;;;;;62.47;27.50;;;;;;;-3.91;78.66;100490.44;4924699;28;20221;-65
2023/01/12 02:03:05;;;;;;;56.42;27.15;;;;;;;-3.92;79.01;100468.28;4931863;28;20049;-66
2023/01/12 02:05:40;;;;;;;58.70;26.05;;;;;;;-3.68;78.88;100495.69;4925414;28;20052;-65
2023/01/12 02:08:23;;;;;;;61.13;26.77;;;;;;;-3.56;78.87;100498.78;4925502;28;20048;-69
2023/01/12 02:10:56;;;;;;;61.33;27.15;;;;;;;-3.35;78.93;100513.31;4914526;28;20699;-68
2023/01/12 02:16:22;;;;;;;58.22;26.30;;;;;;;-3.07;78.69;100516.25;4918388;27;20048;-64
2023/01/12 02:19:03;;;;;;;61.05;26.92;;;;;;;-2.91;78.03;100522.00;4919413;28;20057;-66
2023/01/12 02:21:59;;;;;;;61.70;26.90;;;;;;;-2.77;78.32;100510.69;4918658;28;20372;-67
2023/01/12 02:24:56;;;;;;;54.13;25.80;;;;;;;-2.53;78.11;100520.16;4916138;28;20394;-65
2023/01/12 02:27:49;;;;;;;57.08;26.63;;;;;;;-2.22;77.95;100510.31;4914472;28;20554;-67
2023/01/12 02:30:51;;;;;;;56.53;25.63;;;;;;;-1.99;77.57;100510.34;4913514;28;20138;-66
2023/01/12 02:33:43;;;;;;;63.00;25.60;;;;;;;-1.86;76.89;100507.41;4901411;28;20170;-68
2023/01/12 02:36:20;;;;;;;49.58;23.95;;;;;;;-1.74;76.74;100507.88;4884851;28;20372;-68
2023/01/12 02:38:56;;;;;;;54.65;23.30;;;;;;;-1.55;76.51;100508.53;4902517;28;20060;-72
2023/01/12 02:44:30;;;;;;;47.15;22.05;;;;;;;-1.21;75.95;100509.75;4910983;28;20298;-67
2023/01/12 02:47:04;;;;;;;41.47;20.63;;;;;;;-1.08;75.45;100506.78;4924131;28;20422;-70
2023/01/12 02:49:43;;;;;;;49.22;21.42;;;;;;;-1.04;74.88;100493.25;4914545;28;20070;-68
2023/01/12 02:52:18;;;;;;;47.63;22.20;;;;;;;-0.90;74.34;100506.53;4916917;28;20069;-70
2023/01/12 02:54:50;;;;;;;44.65;21.27;;;;;;;-0.85;74.32;100514.38;4924399;28;20380;-67
2023/01/12 02:57:23;;;;;;;39.13;19.48;;;;;;;-0.72;74.27;100511.44;4923967;28;20056;-63
2023/01/12 02:59:56;;;;;;;38.92;18.77;;;;;;;-0.55;73.34;100520.56;4915030;28;20175;-68
2023/01/12 03:02:28;;;;;;;41.15;20.92;;;;;;;-0.43;72.85;100520.91;4925008;28;20063;-66
2023/01/12 03:05:00;;;;;;;44.90;19.58;;;;;;;-0.30;72.43;100526.44;4922116;28;20485;-69
2023/01/12 03:07:46;;;;;;;38.00;19.05;;;;;;;-0.35;71.89;100523.75;4924489;28;20397;-69
2023/01/12 03:10:45;;;;;;;41.47;19.38;;;;;;;-0.30;71.63;100513.59;4900946;28;20052;-63
2023/01/12 03:13:17;;;;;;;42.90;17.60;;;;;;;-0.36;71.98;100504.03;4880575;28;20091;-68
2023/01/12 03:15:51;;;;;;;40.95;17.42;;;;;;;-0.33;71.33;100526.34;4917245;28;20048;-67
2023/01/12 03:18:28;;;;;;;33.00;16.13;;;;;;;-0.39;71.05;100531.31;4917048;28;20056;-66
2023/01/12 03:21:05;;;;;;;34.10;15.73;;;;;;;-0.34;71.36;100514.34;4907231;28;20055;-66
2023/01/12 03:23:41;;;;;;;22.27;10.70;;;;;;;-0.12;71.28;100521.91;4906900;28;20051;-66
2023/01/12 03:26:16;;;;;;;29.90;14.07;;;;;;;-0.02;71.33;100523.94;4914873;28;21222;-66
2023/01/12 03:28:51;;;;;;;30.48;14.82;;;;;;;0.04;70.60;100522.38;4916716;28;20151;-67
2023/01/12 03:31:23;;;;;;;29.75;16.02;;;;;;;0.11;70.30;100524.31;4916627;28;20475;-68
2023/01/12 03:33:56;;;;;;;34.75;14.93;;;;;;;0.17;70.08;100529.59;4908102;28;20895;-67
2023/01/12 03:36:38;;;;;;;28.00;14.45;;;;;;;0.16;69.46;100533.03;4915934;28;20054;-65
2023/01/12 03:39:17;;;;;;;29.67;14.65;;;;;;;0.23;69.57;100539.22;4906940;28;20058;-65
2023/01/12 03:41:57;;;;;;;24.30;12.65;;;;;;;0.41;68.73;100558.59;4906052;28;20051;-66
2023/01/12 03:44:36;;;;;;;27.40;11.73;;;;;;;0.25;67.01;100535.88;4906518;28;20436;-66
2023/01/12 03:47:14;;;;;;;29.60;13.18;;;;;;;0.12;66.56;100521.75;4906357;28;20383;-68
2023/01/12 03:49:51;;;;;;;26.40;13.15;;;;;;;0.35;66.65;100566.16;4905513;28;20162;-68
2023/01/12 03:52:26;;;;;;;28.27;12.20;;;;;;;0.30;66.42;100557.44;4901855;28;20068;-65
2023/01/12 03:54:59;;;;;;;27.98;14.20;;;;;;;0.31;66.51;100554.03;4900670;28;20056;-65
2023/01/12 03:57:30;;;;;;;26.83;12.68;;;;;;;0.31;66.49;100546.31;4901130;28;20101;-64
2023/01/12 04:00:03;;;;;;;23.80;11.73;;;;;;;0.38;65.95;100550.81;4901900;28;20048;-66
2023/01/12 04:02:35;;;;;;;30.42;14.23;;;;;;;0.46;66.45;100563.88;4891308;28;20511;-66
2023/01/12 04:05:07;;;;;;;22.52;10.68;;;;;;;0.49;65.87;100537.41;4901076;28;20517;-70
2023/01/12 04:07:39;;;;;;;27.52;11.48;;;;;;;0.47;66.02;100539.06;4900386;28;20406;-67
2023/01/12 04:10:11;;;;;;;22.63;10.80;;;;;;;0.52;66.92;100542.63;4900357;28;20383;-71
2023/01/12 04:12:41;;;;;;;24.67;11.40;;;;;;;0.55;66.28;100543.59;4901380;28;21054;-67
2023/01/12 04:15:12;;;;;;;21.80;10.68;;;;;;;0.43;65.86;100527.81;4915254;28;20065;-64
2023/01/12 04:17:43;;;;;;;22.77;10.98;;;;;;;0.56;65.99;100544.47;4920988;28;20068;-67
2023/01/12 04:20:14;;;;;;;25.02;10.45;;;;;;;0.56;65.86;100539.31;4918175;28;20069;-70
2023/01/12 04:22:46;;;;;;;26.45;11.13;;;;;;;0.55;66.27;100527.28;4916050;28;20463;-66
2023/01/12 04:25:20;;;;;;;21.48;9.60;;;;;;;0.59;65.99;100540.25;4917115;28;20419;-64
2023/01/12 04:27:52;;;;;;;18.77;8.90;;;;;;;0.56;65.58;100529.03;4916179;28;20515;-68
2023/01/12 04:30:26;;;;;;;28.00;10.35;;;;;;;0.62;65.21;100545.53;4912759;28;20536;-65
2023/01/12 04:32:57;;;;;;;22.70;10.70;;;;;;;0.64;65.00;100558.41;4915116;28;20436;-66
2023/01/12 04:35:28;;;;;;;20.63;10.32;;;;;;;0.64;64.97;100558.41;4914833;28;20145;-70
2023/01/12 04:38:05;;;;;;;24.98;10.52;;;;;;;0.68;64.57;100565.38;4914714;28;20183;-69
2023/01/12 04:40:36;;;;;;;19.67;10.10;;;;;;;0.58;64.80;100568.53;4904170;28;20048;-64
2023/01/12 04:43:08;;;;;;;20.52;8.80;;;;;;;0.60;64.98;100572.00;4914654;28;20603;-68
2023/01/12 04:45:42;;;;;;;16.70;9.25;;;;;;;0.62;65.10;100580.63;4915166;28;20064;-70
2023/01/12 04:48:15;;;;;;;20.33;9.25;;;;;;;0.53;64.84;100570.09;4912446;28;21606;-68
2023/01/12 04:50:45;;;;;;;21.70;10.60;;;;;;;0.35;65.10;100544.69;4916906;28;20063;-64
2023/01/12 04:53:20;;;;;;;21.10;10.00;;;;;;;0.52;65.29;100588.91;4915360;28;20044;-68
2023/01/12 04:55:51;;;;;;;17.38;9.30;;;;;;;0.51;65.34;100589.75;4901093;28;20060;-69
2023/01/12 04:58:21;;;;;;;20.70;9.07;;;;;;;0.48;65.09;100607.66;4902149;28;20053;-68
2023/01/12 05:00:52;;;;;;;24.30;10.40;;;;;;;0.43;64.84;100610.94;4899477;28;20783;-66
2023/01/12 05:03:23;;;;;;;21.63;9.80;;;;;;;0.37;65.56;100600.47;4905884;28;20072;-65
2023/01/12 05:05:53;;;;;;;20.88;8.70;;;;;;;0.38;65.89;100617.66;4905415;28;20405;-65
2023/01/12 05:11:13;;;;;;;17.75;9.57;;;;;;;0.26;66.71;100614.69;4882832;28;20151;-67
2023/01/12 05:13:43;;;;;;;21.48;10.15;;;;;;;0.24;67.38;100626.63;4903332;28;20053;-70
2023/01/12 05:16:16;;;;;;;18.42;8.63;;;;;;;0.22;67.01;100630.84;4901518;28;20053;-68
2023/01/12 05:18:47;;;;;;;21.63;9.82;;;;;;;0.32;67.02;100638.00;4902252;28;20052;-71
2023/01/12 05:21:18;;;;;;;26.38;9.75;;;;;;;0.28;67.25;100646.47;4903428;28;20514;-69
2023/01/12 05:23:51;;;;;;;26.33;9.85;;;;;;;0.26;66.13;100648.13;4913306;28;20048;-68
2023/01/12 05:26:22;;;;;;;19.40;8.60;;;;;;;0.23;65.23;100652.31;4924927;28;20596;-64
2023/01/12 05:28:52;;;;;;;20.17;9.77;;;;;;;0.12;65.65;100649.38;4934710;28;20053;-66
2023/01/12 05:31:23;;;;;;;21.67;8.82;;;;;;;0.09;65.80;100659.56;4931752;28;20044;-65
2023/01/12 05:33:53;;;;;;;21.38;9.88;;;;;;;0.06;65.40;100669.75;4927979;28;20046;-62
2023/01/12 05:36:24;;;;;;;21.70;9.63;;;;;;;-0.10;65.87;100664.09;4926825;28;20109;-67
2023/01/12 05:38:56;;;;;;;23.02;9.02;;;;;;;-0.23;65.93;100656.78;4926221;28;20066;-65
2023/01/12 05:41:27;;;;;;;17.83;8.73;;;;;;;-0.22;66.34;100668.84;4926474;28;20047;-68
2023/01/12 05:43:56;;;;;;;23.63;10.43;;;;;;;-0.23;66.53;100669.63;4924596;28;20056;-66
2023/01/12 05:46:29;;;;;;;17.33;9.32;;;;;;;-0.32;66.24;100667.66;4925921;28;20052;-66
2023/01/12 05:49:00;;;;;;;21.85;9.35;;;;;;;-0.39;66.68;100675.09;4908655;28;20056;-64
2023/01/12 05:51:31;;;;;;;18.55;7.88;;;;;;;-0.72;68.58;100691.06;4924187;28;20048;-66
2023/01/12 05:54:04;;;;;;;20.30;9.15;;;;;;;-1.15;70.96;100692.00;4924489;28;20056;-69
2023/01/12 05:56:34;;;;;;;22.17;9.25;;;;;;;-1.36;72.59;100710.91;4914766;28;20044;-65
2023/01/12 05:59:06;;;;;;;18.65;9.43;;;;;;;-1.54;73.32;100705.06;4926290;28;20048;-70
2023/01/12 06:01:37;;;;;;;20.10;9.25;;;;;;;-1.68;74.17;100711.31;4926412;28;20075;-67
2023/01/12 06:04:08;;;;;;;19.80;10.15;;;;;;;-1.82;75.09;100724.44;4924673;28;20063;-69
2023/01/12 06:06:39;;;;;;;23.17;11.05;;;;;;;-1.89;75.80;100722.44;4925275;28;20071;-70
2023/01/12 06:09:12;;;;;;;21.55;10.30;;;;;;;-1.96;75.97;100720.44;4925957;28;20513;-70
2023/01/12 06:14:30;;;;;;;16.65;8.70;;;;;;;-2.80;76.44;100611.94;4914153;28;20054;-69
2023/01/12 06:17:01;;;;;;;20.80;7.90;;;;;;;-2.17;77.00;100752.03;4924908;28;20055;-70
2023/01/12 06:19:32;;;;;;;16.85;8.27;;;;;;;-2.26;77.55;100759.28;4926190;28;20066;-65
2023/01/12 06:22:03;;;;;;;20.40;8.43;;;;;;;-2.39;77.90;100750.22;4922232;28;20064;-66
2023/01/12 06:24:35;;;;;;;16.95;7.88;;;;;;;-2.37;77.94;100773.31;4928837;28;20111;-66
2023/01/12 06:27:07;;;;;;;18.10;8.32;;;;;;;-2.46;77.83;100775.47;4924782;28;20062;-67
2023/01/12 06:29:38;;;;;;;17.05;8.30;;;;;;;-2.56;78.03;100775.88;4926425;28;20064;-67
2023/01/12 06:32:08;;;;;;;19.95;8.30;;;;;;;-2.64;77.98;100778.97;4922827;28;20494;-64
2023/01/12 06:34:39;;;;;;;17.90;9.30;;;;;;;-2.71;77.80;100776.94;4924559;28;20528;-66
2023/01/12 06:37:11;;;;;;;20.77;8.55;;;;;;;-2.72;77.61;100780.31;4928225;28;20071;-66
2023/01/12 06:39:44;;;;;;;18.15;9.18;;;;;;;-2.90;76.74;100770.09;4925892;28;20064;-65
2023/01/12 06:42:30;;;;;;;18.85;7.57;;;;;;;-3.12;75.83;100773.38;4923915;28;20055;-68
2023/01/12 06:45:02;;;;;;;14.50;7.72;;;;;;;-3.48;76.42;100758.03;4914834;28;20135;-69
2023/01/12 06:47:33;;;;;;;18.85;7.45;;;;;;;-3.57;76.94;100772.91;4919236;28;20460;-66
2023/01/12 06:50:03;;;;;;;14.55;7.22;;;;;;;-3.71;77.17;100779.03;4928740;28;20061;-69
2023/01/12 06:52:34;;;;;;;14.05;8.52;;;;;;;-3.85;77.55;100774.91;4927367;28;20103;-66
2023/01/12 06:55:07;;;;;;;13.05;7.05;;;;;;;-4.08;77.87;100769.53;4924033;28;20052;-70
2023/01/12 06:57:37;;;;;;;31.50;17.00;;;;;;;-4.41;78.57;100777.22;4924644;28;20059;-69
2023/01/12 07:00:11;;;;;;;29.40;14.45;;;;;;;-4.68;79.56;100785.97;4924116;28;20058;-66
2023/01/12 07:02:41;;;;;;;30.77;16.95;;;;;;;-4.72;81.00;100794.25;4924431;28;20675;-67
2023/01/12 07:05:12;;;;;;;32.25;18.33;;;;;;;-4.82;81.75;100809.06;4924172;28;20067;-67
2023/01/12 07:07:43;;;;;;;16.83;8.88;;;;;;;-4.93;82.60;100809.28;4921300;28;20048;-67
2023/01/12 07:10:16;;;;;;;17.55;8.70;;;;;;;-5.04;83.34;100811.22;4929842;28;20456;-66
2023/01/12 07:12:46;;;;;;;18.13;9.10;;;;;;;-5.10;84.29;100831.28;4924210;28;20055;-69
2023/01/12 07:15:17;;;;;;;20.85;8.55;;;;;;;-5.13;84.88;100836.22;4924065;28;20052;-70
2023/01/12 07:17:47;;;;;;;21.17;8.93;;;;;;;-5.12;85.86;100858.34;4925447;28;20686;-67
2023/01/12 07:20:18;;;;;;;25.38;12.68;;;;;;;-5.18;86.43;100852.91;4922699;28;20040;-65
2023/01/12 07:22:49;;;;;;;29.30;17.42;;;;;;;-5.13;87.56;100867.66;4923010;28;20048;-63
2023/01/12 07:25:22;;;;;;;30.75;13.15;;;;;;;-5.43;88.82;100821.81;4923017;28;20056;-66
2023/01/12 07:27:53;;;;;;;27.10;11.95;;;;;;;-5.12;89.69;100873.63;4921506;28;20129;-66
2023/01/12 07:30:24;;;;;;;28.02;12.45;;;;;;;-5.13;90.50;100876.97;4923205;28;20061;-65
2023/01/12 07:32:55;;;;;;;21.27;10.48;;;;;;;-5.12;90.56;100879.59;4923804;28;20657;-63
2023/01/12 07:35:25;;;;;;;22.23;10.68;;;;;;;-5.09;91.50;100878.88;4923864;28;20780;-64
2023/01/12 07:37:59;;;;;;;17.38;9.48;;;;;;;-5.06;91.74;100867.22;4924521;28;20117;-65
2023/01/12 07:40:34;;;;;;;19.50;8.38;;;;;;;-5.03;91.50;100879.25;4923163;28;20541;-64
2023/01/12 07:43:06;;;;;;;18.55;7.68;;;;;;;-5.08;91.65;100880.66;4912613;28;20052;-65
2023/01/12 07:45:37;;;;;;;17.88;8.27;;;;;;;-5.09;91.71;100889.06;4923937;28;20470;-68
2023/01/12 07:48:07;;;;;;;21.42;9.05;;;;;;;-5.18;91.58;100893.66;4929454;28;20052;-66
2023/01/12 07:50:38;;;;;;;18.52;8.02;;;;;;;-5.43;90.95;100879.53;4917326;28;20063;-66
2023/01/12 07:53:09;;;;;;;14.82;8.07;;;;;;;-5.48;91.01;100898.75;4922902;28;20135;-68
2023/01/12 07:55:42;;;;;;;13.95;7.53;;;;;;;-5.65;91.01;100901.19;4924048;28;21112;-68
2023/01/12 07:58:13;;;;;;;15.35;7.90;;;;;;;-6.24;91.34;100824.78;4920481;28;20083;-67
2023/01/12 08:00:44;;;;;;;15.88;7.93;;;;;;;-5.81;91.79;100903.63;4923256;28;20054;-66
2023/01/12 08:03:17;;;;;;;21.40;9.40;;;;;;;-5.91;92.21;100886.94;4923007;28;20044;-69
2023/01/12 08:05:58;;;;;;;15.68;9.07;;;;;;;-5.71;92.43;100920.34;4924185;28;20101;-69
2023/01/12 08:08:31;;;;;;;21.15;8.63;;;;;;;-5.64;93.07;100923.34;4856367;28;20234;-65
2023/01/12 08:11:05;;;;;;;18.45;8.27;;;;;;;-5.85;93.05;100891.50;4922468;28;20471;-66
2023/01/12 08:13:39;;;;;;;19.13;9.32;;;;;;;-5.64;94.00;100902.09;4911907;28;20056;-68
2023/01/12 08:16:39;;;;;;;18.95;9.25;;;;;;;-5.36;93.23;100950.41;4926266;28;20055;-66
2023/01/12 08:19:14;;;;;;;20.45;9.35;;;;;;;-5.94;92.62;100875.72;4923037;28;20694;-66
2023/01/12 08:22:40;;;;;;;18.33;8.48;;;;;;;-5.65;92.24;100962.28;4912219;28;20048;-64
2023/01/12 08:25:15;;;;;;;20.42;8.35;;;;;;;-5.83;91.67;100961.19;4912466;28;20044;-69
2023/01/12 08:27:52;;;;;;;27.88;7.97;;;;;;;-5.94;91.46;100959.69;4910423;28;20048;-67
2023/01/12 08:31:00;;;;;;;17.55;8.95;;;;;;;-6.09;91.32;100950.34;4911146;28;21203;-69
2023/01/12 08:33:31;;;;;;;22.25;10.20;;;;;;;-6.11;91.24;100959.56;4905855;28;20063;-66
2023/01/12 08:36:05;;;;;;;23.95;9.13;;;;;;;-6.20;91.24;100964.06;4923168;28;25035;-64
2023/01/12 08:38:36;;;;;;;18.75;8.35;;;;;;;-6.27;91.40;100972.09;4921611;28;20071;-68
2023/01/12 08:44:03;;;;;;;53.85;23.38;;;;;;;-6.41;91.03;100972.91;4911174;28;20054;-66
2023/01/12 08:46:35;;;;;;;60.50;28.77;;;;;;;-6.56;91.14;100973.69;4916167;28;20053;-69
2023/01/12 08:49:10;;;;;;;35.15;17.25;;;;;;;-6.47;91.10;100982.69;4920414;28;20121;-66
2023/01/12 08:51:51;;;;;;;23.50;12.27;;;;;;;-6.45;91.22;100986.22;4911667;28;20052;-66
2023/01/12 08:54:26;;;;;;;18.73;10.10;;;;;;;-6.42;90.73;100986.38;4910732;28;20048;-70
2023/01/12 08:56:58;;;;;;;21.75;10.27;;;;;;;-6.62;89.38;100986.00;4913682;28;20047;-67
2023/01/12 08:59:30;;;;;;;24.45;11.43;;;;;;;-6.58;89.48;100985.44;4924211;28;20849;-69
2023/01/12 09:02:07;;;;;;;27.80;14.25;;;;;;;-6.86;88.33;100990.41;4916676;28;20047;-69
2023/01/12 09:04:56;;;;;;;73.43;32.22;;;;;;;-7.22;86.93;101001.56;4917004;28;20525;-64
2023/01/12 09:07:26;;;;;;;73.15;31.90;;;;;;;-7.41;87.52;100990.19;4918929;28;20661;-68
2023/01/12 09:10:05;;;;;;;61.55;29.00;;;;;;;-7.45;87.21;100995.81;4928508;28;20120;-66
2023/01/12 09:12:56;;;;;;;22.80;9.80;;;;;;;-7.27;87.76;100995.28;4914060;28;20070;-68
2023/01/12 09:15:49;;;;;;;25.40;12.52;;;;;;;-7.21;88.27;100991.50;4916107;28;20051;-70
2023/01/12 09:18:44;;;;;;;19.83;9.85;;;;;;;-7.50;87.06;101012.41;4914767;28;20052;-67
2023/01/12 09:21:23;;;;;;;21.25;9.90;;;;;;;-7.81;87.14;100987.47;4917483;27;20155;-66
2023/01/12 09:23:55;;;;;;;16.38;9.07;;;;;;;-7.82;87.37;101011.06;4917891;28;20052;-67
2023/01/12 09:26:39;;;;;;;22.73;10.35;;;;;;;-7.82;88.22;100995.84;4925819;28;20097;-66
2023/01/12 09:29:13;;;;;;;292.40;74.88;;;;;;;-7.95;87.66;101018.63;4914580;28;20727;-66
2023/01/12 09:31:46;;;;;;;387.98;97.18;;;;;;;-7.98;88.02;101013.34;4916826;28;20610;-66
2023/01/12 09:34:17;;;;;;;130.25;38.22;;;;;;;-8.15;88.52;100996.06;4930753;28;20063;-68
2023/01/12 09:37:02;;;;;;;53.40;18.15;;;;;;;-8.34;88.92;100982.06;4903101;28;20053;-69
2023/01/12 09:39:33;;;;;;;24.25;10.95;;;;;;;-8.27;89.90;100994.41;4912028;28;20057;-68
2023/01/12 09:48:11;;;;;;;23.27;9.73;;;;;;;-8.12;91.55;100998.81;4914635;28;20048;-67
2023/01/12 09:50:49;;;;;;;18.30;9.07;;;;;;;-8.14;91.81;101000.34;4926348;28;20063;-69
2023/01/12 09:53:42;;;;;;;19.90;9.57;;;;;;;-8.10;92.76;100982.94;4916312;28;20525;-66
2023/01/12 09:56:22;;;;;;;19.83;7.82;;;;;;;-7.75;94.29;101008.97;4900067;28;20052;-67
2023/01/12 09:59:24;;;;;;;14.68;7.43;;;;;;;-7.67;94.11;101015.44;4909187;28;20057;-66
2023/01/12 10:02:21;;;;;;;21.13;8.02;;;;;;;-7.69;93.99;101014.47;4904778;28;20368;-67
2023/01/12 10:05:07;;;;;;;15.82;8.52;;;;;;;-7.70;93.52;101015.25;4919089;28;20056;-67
2023/01/12 10:07:38;;;;;;;19.50;11.40;;;;;;;-7.65;93.37;101013.91;4913785;28;20731;-68
2023/01/12 10:10:15;;;;;;;17.02;9.43;;;;;;;-7.78;92.26;101024.00;4908966;28;20125;-66
2023/01/12 10:12:50;;;;;;;12.18;6.15;;;;;;;-8.02;91.09;101007.16;4905529;28;20044;-68
2023/01/12 10:15:33;;;;;;;17.02;7.32;;;;;;;-8.17;90.28;101010.28;4925085;28;20056;-66
2023/01/12 10:18:09;;;;;;;17.10;8.68;;;;;;;-8.44;90.16;100984.78;4915326;28;20055;-67
2023/01/12 10:20:44;;;;;;;22.92;9.27;;;;;;;-8.68;90.09;100949.31;4926056;28;20048;-66
2023/01/12 10:23:23;;;;;;;17.77;8.48;;;;;;;-8.35;90.11;101010.75;4893673;28;20480;-66
2023/01/12 10:26:23;;;;;;;17.05;8.88;;;;;;;-8.43;89.97;101009.38;4914604;28;20467;-69
2023/01/12 10:28:57;;;;;;;15.70;7.90;;;;;;;-8.48;89.70;101000.56;4905063;28;20050;-66
2023/01/12 10:31:27;;;;;;;15.55;7.03;;;;;;;-8.56;89.60;100999.09;4925207;28;20044;-67
2023/01/12 10:34:10;;;;;;;17.13;8.13;;;;;;;-9.04;89.17;100939.09;4924277;28;20051;-67
2023/01/12 10:36:48;;;;;;;17.50;9.68;;;;;;;-8.64;89.67;100995.16;4924303;28;20080;-66
2023/01/12 10:39:31;;;;;;;20.20;10.52;;;;;;;-8.46;90.78;100976.22;4910556;28;20051;-67
2023/01/12 10:45:16;;;;;;;17.80;7.35;;;;;;;-8.42;90.25;100998.44;4854525;28;20049;-66
2023/01/12 10:48:33;;;;;;;15.55;6.90;;;;;;;-8.56;89.42;101024.44;4855842;28;20049;-67
2023/01/12 10:51:07;;;;;;;14.32;6.93;;;;;;;-8.60;89.26;101018.28;4844645;28;20069;-69
2023/01/12 10:53:50;;;;;;;14.05;6.43;;;;;;;-8.70;88.34;101021.81;4859724;28;20810;-66
2023/01/12 10:56:36;;;;;;;16.35;6.57;;;;;;;-8.97;86.90;101032.44;4862726;28;20061;-67
2023/01/12 10:59:20;;;;;;;17.42;5.95;;;;;;;-9.21;85.85;101040.00;4863442;28;20061;-67
2023/01/12 11:01:53;;;;;;;20.27;7.53;;;;;;;-9.53;85.92;100989.50;4854630;28;20123;-66
2023/01/12 11:05:10;;;;;;;29.77;10.88;;;;;;;-9.33;85.49;101034.03;4857193;28;20074;-65
2023/01/12 11:07:50;;;;;;;78.95;22.80;;;;;;;-9.51;84.73;101027.56;4854186;28;20719;-67
2023/01/12 11:10:30;;;;;;;83.28;18.77;;;;;;;-9.65;85.43;101024.88;4864275;28;20061;-66
2023/01/12 11:13:06;;;;;;;49.47;17.20;;;;;;;-9.43;86.73;101026.50;4852744;28;20060;-67
2023/01/12 11:15:53;;;;;;;37.38;14.90;;;;;;;-9.44;87.32;100980.06;4855376;28;20061;-66
2023/01/12 11:18:39;;;;;;;27.05;12.50;;;;;;;-9.32;87.37;101020.59;4858909;28;20641;-66
2023/01/12 11:21:17;;;;;;;23.63;10.68;;;;;;;-9.35;87.97;101021.25;4851368;28;20064;-66
2023/01/12 11:23:58;;;;;;;21.73;9.77;;;;;;;-9.33;88.42;101006.19;4907146;28;20050;-67
2023/01/12 11:26:42;;;;;;;17.58;7.65;;;;;;;-9.41;88.43;100989.53;4912905;28;20062;-67
2023/01/12 11:29:28;;;;;;;15.02;7.93;;;;;;;-9.42;88.28;100993.69;4907964;28;20537;-67
2023/01/12 11:32:25;;;;;;;;;;;;;;;;;;;;;
2023/01/12 11:35:39;;;;;;;15.98;7.18;;;;;;;-9.55;87.76;101017.22;4894421;28;20053;-66
2023/01/12 11:38:22;;;;;;;23.30;9.63;;;;;;;-9.60;87.55;101018.50;4923836;28;20634;-66
2023/01/12 11:45:12;;;;;;;48.28;18.02;;;;;;;-9.21;88.50;101044.16;4787828;28;20039;-67
2023/01/12 11:47:55;;;;;;;38.05;15.93;;;;;;;-9.17;88.50;101031.84;4863310;28;20048;-64
2023/01/12 11:50:31;;;;;;;49.78;20.92;;;;;;;-9.10;87.80;101037.38;4901315;28;20040;-66
2023/01/12 11:53:22;;;;;;;84.22;31.77;;;;;;;-9.33;86.70;101028.97;4918674;28;20052;-66
2023/01/12 11:59:34;;;;;;;149.13;44.40;;;;;;;-9.65;86.46;101019.81;4801638;28;20104;-64
2023/01/12 13:13:34;;;;;;;34.45;11.77;;;;;;;-9.83;84.11;100957.72;4709847;29;20625;-64
2023/01/12 13:16:45;;;;;;;35.50;12.65;;;;;;;-9.88;83.94;100964.97;4759125;29;20063;-64
2023/01/12 13:19:44;;;;;;;42.25;14.23;;;;;;;-9.88;83.48;100964.06;4789001;28;20066;-66
2023/01/12 13:22:44;;;;;;;47.08;17.15;;;;;;;-9.93;83.48;100960.28;4809090;28;20556;-66
2023/01/12 13:29:34;;;;;;;256.40;66.10;;;;;;;-9.83;83.33;100977.94;4896200;28;20056;-66
2023/01/12 13:32:48;;;;;;;104.15;32.80;;;;;;;-10.18;82.25;100973.59;4905954;28;20051;-68
2023/01/12 13:36:12;;;;;;;78.63;25.42;;;;;;;-10.43;82.45;100966.66;4901367;28;20539;-65
2023/01/12 13:39:11;;;;;;;103.28;31.33;;;;;;;-10.34;82.11;100976.59;4904232;28;20453;-66
2023/01/12 13:45:11;;;;;;;;;;;;;;;-10.66;81.45;100979.09;4908041;28;20471;-66
2023/01/12 13:51:42;;;;;;;374.58;102.97;;;;;;;-10.83;82.43;100946.59;4822917;28;20473;-66
2023/01/12 13:54:16;;;;;;;187.73;59.65;;;;;;;-11.07;82.57;100926.22;4895705;28;20050;-66
2023/01/12 13:56:55;;;;;;;46.97;23.35;;;;;;;-11.11;82.79;100934.28;4912060;28;20509;-67